createdAt,value
2023-03-11T00:00:25.526Z,14.39
2023-03-11T00:02:54.454Z,14.45
2023-03-11T00:05:27.070Z,14.50
2023-03-11T00:07:54.401Z,14.45
2023-03-11T00:10:25.504Z,14.52
2023-03-11T00:12:52.341Z,14.54
2023-03-11T00:15:19.518Z,14.64
2023-03-11T00:17:48.495Z,14.57
2023-03-11T00:20:19.573Z,14.46
2023-03-11T00:22:47.302Z,14.43
2023-03-11T00:25:14.233Z,14.47
2023-03-11T00:27:40.918Z,14.49
2023-03-11T00:30:08.328Z,14.45
2023-03-11T00:32:35.079Z,14.37
2023-03-11T00:35:02.174Z,14.34
2023-03-11T00:37:29.074Z,14.29
2023-03-11T00:39:55.798Z,14.34
2023-03-11T00:42:22.598Z,14.29
2023-03-11T00:44:49.305Z,14.34
2023-03-11T00:47:16.128Z,14.34
2023-03-11T00:49:43.239Z,14.34
2023-03-11T00:52:09.933Z,14.37
2023-03-11T00:54:36.628Z,14.36
2023-03-11T00:57:03.419Z,14.31
2023-03-11T00:59:30.116Z,14.27
2023-03-11T01:01:56.840Z,14.30
2023-03-11T01:04:23.736Z,14.28
2023-03-11T01:06:50.376Z,14.23
2023-03-11T01:09:17.089Z,14.27
2023-03-11T01:11:44.331Z,14.18
2023-03-11T01:14:11.056Z,14.41
2023-03-11T01:16:37.795Z,14.44
2023-03-11T01:19:04.547Z,14.38
2023-03-11T01:21:31.677Z,14.39
2023-03-11T01:23:58.319Z,14.47
2023-03-11T01:26:25.108Z,14.54
2023-03-11T01:28:51.818Z,14.37
2023-03-11T01:31:18.611Z,14.38
2023-03-11T01:33:45.644Z,14.45
2023-03-11T01:36:12.502Z,14.49
2023-03-11T01:38:39.349Z,14.46
2023-03-11T01:41:06.628Z,14.42
2023-03-11T01:43:45.195Z,14.42
2023-03-11T01:46:18.206Z,14.51
2023-03-11T01:48:48.457Z,14.47
2023-03-11T01:51:17.898Z,14.45
2023-03-11T01:53:45.506Z,14.49
2023-03-11T01:56:14.326Z,14.54
2023-03-11T01:58:45.038Z,14.52
2023-03-11T02:01:13.071Z,14.57
2023-03-11T02:03:42.423Z,14.52
2023-03-11T02:06:14.165Z,14.57
2023-03-11T02:08:42.420Z,14.57
2023-03-11T02:11:12.997Z,14.43
2023-03-11T02:13:41.977Z,14.52
2023-03-11T02:16:08.825Z,14.50
2023-03-11T02:18:36.925Z,14.54
2023-03-11T02:21:24.991Z,14.52
2023-03-11T02:24:22.514Z,14.43
2023-03-11T02:27:09.472Z,14.52
2023-03-11T02:29:37.556Z,14.17
2023-03-11T02:32:07.975Z,14.49
2023-03-11T02:34:37.467Z,14.45
2023-03-11T02:37:06.667Z,14.37
2023-03-11T02:39:37.287Z,14.48
2023-03-11T02:42:23.350Z,14.51
2023-03-11T02:44:56.048Z,14.41
2023-03-11T02:47:23.035Z,14.34
2023-03-11T02:49:49.686Z,14.43
2023-03-11T02:52:17.452Z,14.37
2023-03-11T02:54:44.068Z,14.32
2023-03-11T02:57:10.735Z,14.31
2023-03-11T02:59:37.566Z,14.30
2023-03-11T03:02:04.564Z,14.33
2023-03-11T03:04:31.250Z,14.28
2023-03-11T03:06:57.945Z,14.25
2023-03-11T03:09:24.684Z,14.23
2023-03-11T03:11:51.392Z,14.20
2023-03-11T03:14:18.146Z,14.22
2023-03-11T03:16:44.924Z,14.15
2023-03-11T03:19:11.738Z,14.12
2023-03-11T03:21:38.411Z,14.23
2023-03-11T03:24:05.148Z,14.22
2023-03-11T03:26:31.803Z,14.25
2023-03-11T03:29:00.542Z,14.10
2023-03-11T03:31:27.286Z,14.10
2023-03-11T03:33:54.036Z,14.08
2023-03-11T03:36:20.791Z,14.04
2023-03-11T03:38:47.492Z,14.07
2023-03-11T03:41:15.842Z,14.01
2023-03-11T03:43:42.619Z,14.06
2023-03-11T03:46:09.414Z,14.03
2023-03-11T03:48:36.268Z,14.00
2023-03-11T03:51:09.020Z,14.00
2023-03-11T03:53:36.520Z,14.03
2023-03-11T03:56:07.789Z,14.03
2023-03-11T03:58:34.566Z,14.00
2023-03-11T04:01:01.428Z,13.97
2023-03-11T04:03:28.755Z,14.08
2023-03-11T04:06:05.036Z,14.08
2023-03-11T04:08:31.642Z,14.03
2023-03-11T04:10:58.519Z,14.01
2023-03-11T04:13:25.226Z,14.04
2023-03-11T04:15:51.941Z,14.02
2023-03-11T04:18:18.783Z,14.07
2023-03-11T04:20:46.617Z,14.03
2023-03-11T04:23:13.236Z,14.07
2023-03-11T04:25:39.894Z,14.13
2023-03-11T04:28:07.058Z,14.09
2023-03-11T04:30:33.821Z,14.11
2023-03-11T04:33:00.477Z,14.02
2023-03-11T04:35:27.285Z,14.07
2023-03-11T04:37:54.011Z,14.06
2023-03-11T04:40:20.768Z,13.95
2023-03-11T04:42:48.464Z,13.96
2023-03-11T04:45:15.241Z,13.99
2023-03-11T04:47:41.923Z,14.09
2023-03-11T04:50:09.096Z,14.06
2023-03-11T04:52:35.804Z,14.05
2023-03-11T04:55:02.551Z,14.00
2023-03-11T04:57:29.330Z,13.98
2023-03-11T04:59:56.118Z,14.10
2023-03-11T05:02:22.852Z,14.01
2023-03-11T05:04:49.644Z,14.05
2023-03-11T05:07:16.723Z,14.06
2023-03-11T05:09:44.044Z,14.20
2023-03-11T05:12:13.520Z,14.18
2023-03-11T05:14:40.868Z,14.10
2023-03-11T05:17:08.162Z,14.19
2023-03-11T05:19:35.302Z,14.26
2023-03-11T05:22:06.011Z,14.31
2023-03-11T05:24:33.299Z,14.22
2023-03-11T05:27:00.259Z,14.24
2023-03-11T05:29:26.968Z,14.30
2023-03-11T05:31:54.287Z,14.22
2023-03-11T05:34:21.689Z,14.34
2023-03-11T05:36:48.851Z,14.26
2023-03-11T05:39:15.623Z,14.20
2023-03-11T05:41:43.253Z,14.46
2023-03-11T05:44:10.123Z,14.61
2023-03-11T05:46:36.911Z,14.68
2023-03-11T05:49:03.790Z,14.97
2023-03-11T05:51:30.477Z,15.36
2023-03-11T05:53:57.227Z,15.75
2023-03-11T05:56:24.079Z,15.58
2023-03-11T05:58:50.862Z,15.58
2023-03-11T06:01:19.097Z,15.32
2023-03-11T06:03:45.916Z,15.15
2023-03-11T06:06:13.987Z,15.01
2023-03-11T06:08:46.143Z,14.79
2023-03-11T06:11:13.167Z,14.60
2023-03-11T06:13:39.890Z,14.83
2023-03-11T06:16:07.112Z,15.02
2023-03-11T06:18:34.121Z,15.03
2023-03-11T06:21:02.375Z,14.86
2023-03-11T06:23:30.215Z,15.01
2023-03-11T06:26:02.118Z,15.15
2023-03-11T06:28:29.662Z,15.30
2023-03-11T06:30:56.932Z,15.33
2023-03-11T06:33:24.369Z,15.19
2023-03-11T06:36:01.629Z,15.32
2023-03-11T06:38:28.812Z,15.62
2023-03-11T06:41:00.155Z,15.90
2023-03-11T06:43:27.122Z,15.88
2023-03-11T06:45:53.854Z,15.78
2023-03-11T06:48:20.631Z,15.98
2023-03-11T06:50:58.127Z,16.08
2023-03-11T06:53:25.823Z,15.80
2023-03-11T06:56:19.344Z,15.65
2023-03-11T06:58:46.680Z,15.91
2023-03-11T07:01:22.231Z,16.06
2023-03-11T07:03:50.120Z,16.13
2023-03-11T07:06:23.821Z,16.15
2023-03-11T07:08:52.210Z,16.14
2023-03-11T07:11:19.222Z,16.04
2023-03-11T07:13:46.384Z,16.04
2023-03-11T07:16:15.784Z,15.71
2023-03-11T07:18:44.159Z,15.67
2023-03-11T07:21:14.238Z,15.96
2023-03-11T07:23:41.802Z,16.09
2023-03-11T07:26:10.539Z,16.22
2023-03-11T07:28:38.437Z,16.18
2023-03-11T07:31:16.876Z,16.41
2023-03-11T07:33:43.601Z,16.62
2023-03-11T07:36:22.336Z,16.65
2023-03-11T07:38:59.631Z,16.80
2023-03-11T07:41:27.157Z,17.24
2023-03-11T07:43:56.043Z,17.98
2023-03-11T07:46:24.518Z,18.06
2023-03-11T07:48:51.997Z,17.61
2023-03-11T07:51:24.087Z,17.09
2023-03-11T07:53:52.846Z,16.77
2023-03-11T07:56:20.109Z,16.94
2023-03-11T07:58:46.982Z,16.90
2023-03-11T08:01:24.710Z,16.80
2023-03-11T08:03:57.170Z,16.75
2023-03-11T08:06:27.102Z,16.68
2023-03-11T08:08:53.984Z,16.73
2023-03-11T08:11:21.553Z,16.70
2023-03-11T08:13:48.450Z,16.52
2023-03-11T08:16:17.760Z,16.53
2023-03-11T08:18:45.832Z,16.60
2023-03-11T08:21:15.287Z,16.66
2023-03-11T08:23:43.187Z,16.61
2023-03-11T08:26:13.869Z,16.68
2023-03-11T08:28:40.931Z,16.83
2023-03-11T08:31:24.174Z,17.12
2023-03-11T08:33:52.745Z,17.46
2023-03-11T08:36:20.388Z,17.29
2023-03-11T08:38:47.452Z,17.56
2023-03-11T08:41:14.196Z,17.74
2023-03-11T08:43:41.415Z,17.98
2023-03-11T08:46:08.160Z,17.82
2023-03-11T08:48:37.371Z,17.65
2023-03-11T08:51:10.677Z,17.61
2023-03-11T08:53:37.847Z,17.91
2023-03-11T08:56:05.185Z,17.83
2023-03-11T08:58:32.053Z,17.87
2023-03-11T09:00:59.082Z,18.47
2023-03-11T09:03:25.838Z,19.16
2023-03-11T09:06:04.566Z,19.61
2023-03-11T09:08:31.296Z,19.69
2023-03-11T09:10:58.086Z,19.22
2023-03-11T09:13:24.915Z,18.82
2023-03-11T09:15:52.407Z,19.10
2023-03-11T09:18:19.286Z,19.07
2023-03-11T09:20:46.389Z,18.69
2023-03-11T09:23:15.724Z,18.89
2023-03-11T09:25:42.556Z,18.49
2023-03-11T09:28:09.391Z,18.43
2023-03-11T09:30:36.153Z,18.56
2023-03-11T09:33:03.112Z,18.41
2023-03-11T09:35:30.192Z,18.27
2023-03-11T09:37:56.852Z,18.70
2023-03-11T09:40:25.734Z,18.90
2023-03-11T09:43:16.968Z,19.25
2023-03-11T09:46:07.412Z,19.43
2023-03-11T09:48:57.824Z,19.24
2023-03-11T09:51:42.844Z,19.20
2023-03-11T09:54:14.019Z,19.30
2023-03-11T09:56:44.421Z,19.52
2023-03-11T09:59:30.490Z,19.40
2023-03-11T10:01:57.620Z,19.01
2023-03-11T10:04:36.953Z,18.93
2023-03-11T10:07:12.354Z,18.25
2023-03-11T10:09:46.406Z,18.15
2023-03-11T10:12:39.111Z,18.12
2023-03-11T10:15:20.775Z,18.08
2023-03-11T10:18:27.703Z,17.57
2023-03-11T10:21:12.517Z,17.56
2023-03-11T10:24:16.698Z,17.53
2023-03-11T10:26:50.091Z,17.20
2023-03-11T10:29:44.778Z,17.15
2023-03-11T10:32:20.157Z,17.14
2023-03-11T10:34:46.888Z,17.34
2023-03-11T10:37:48.834Z,17.65
2023-03-11T10:40:40.655Z,17.63
2023-03-11T10:43:14.856Z,18.44
2023-03-11T10:45:45.007Z,19.30
2023-03-11T10:48:17.801Z,19.36
2023-03-11T10:51:12.953Z,19.61
2023-03-11T10:53:52.652Z,19.35
2023-03-11T10:56:37.979Z,19.34
2023-03-11T10:59:21.753Z,19.16
2023-03-11T11:02:03.627Z,19.25
2023-03-11T11:04:40.687Z,19.18
2023-03-11T11:07:36.543Z,18.44
2023-03-11T11:10:12.270Z,18.69
2023-03-11T11:13:04.217Z,18.69
2023-03-11T11:15:40.560Z,18.82
2023-03-11T11:18:27.433Z,18.76
2023-03-11T11:21:27.889Z,19.18
2023-03-11T11:24:20.898Z,19.24
2023-03-11T11:27:21.578Z,18.93
2023-03-11T11:30:09.276Z,19.08
2023-03-11T11:32:37.283Z,19.11
2023-03-11T11:35:07.009Z,18.84
2023-03-11T11:37:39.979Z,18.77
2023-03-11T11:40:27.288Z,18.99
2023-03-11T11:43:26.031Z,18.83
2023-03-11T11:46:00.626Z,18.95
2023-03-11T11:48:32.054Z,18.99
2023-03-11T11:51:02.986Z,19.09
2023-03-11T11:53:41.156Z,19.43
2023-03-11T11:56:08.090Z,19.04
2023-03-11T11:58:35.716Z,19.02
2023-03-11T12:01:14.405Z,18.64
2023-03-11T12:04:12.530Z,18.62
2023-03-11T12:06:45.281Z,18.35
2023-03-11T12:09:35.013Z,18.51
2023-03-11T12:12:27.164Z,18.56
2023-03-11T12:15:14.042Z,18.49
2023-03-11T12:17:44.800Z,18.38
2023-03-11T12:20:18.926Z,18.63
2023-03-11T12:23:10.652Z,18.60
2023-03-11T12:26:04.216Z,18.54
2023-03-11T12:28:41.179Z,18.52
2023-03-11T12:31:10.656Z,18.72
2023-03-11T12:33:39.987Z,18.82
2023-03-11T12:36:10.436Z,18.70
2023-03-11T12:38:40.141Z,18.79
2023-03-11T12:41:15.800Z,18.57
2023-03-11T12:43:42.437Z,18.58
2023-03-11T12:46:11.153Z,18.49
2023-03-11T12:48:50.251Z,18.43
2023-03-11T12:51:39.206Z,18.39
2023-03-11T12:54:33.185Z,18.43
2023-03-11T12:57:13.210Z,18.23
2023-03-11T12:59:45.729Z,17.03
2023-03-11T13:02:48.563Z,16.45
2023-03-11T13:05:23.947Z,16.23
2023-03-11T13:08:10.269Z,16.17
2023-03-11T13:10:41.119Z,15.57
2023-03-11T13:13:32.516Z,15.44
2023-03-11T13:16:19.428Z,15.35
2023-03-11T13:18:48.110Z,15.21
2023-03-11T13:21:32.639Z,14.95
2023-03-11T13:24:27.082Z,14.73
2023-03-11T13:26:59.669Z,14.53
2023-03-11T13:29:47.793Z,14.37
2023-03-11T13:32:25.363Z,14.29
2023-03-11T13:34:54.883Z,14.14
2023-03-11T13:37:30.628Z,14.20
2023-03-11T13:40:24.714Z,14.17
2023-03-11T13:42:55.948Z,14.01
2023-03-11T13:45:29.942Z,13.97
2023-03-11T13:48:05.327Z,14.07
2023-03-11T13:50:44.529Z,14.18
2023-03-11T13:53:20.964Z,14.08
2023-03-11T13:55:48.260Z,13.88
2023-03-11T13:58:32.897Z,13.72
2023-03-11T14:01:01.727Z,13.64
2023-03-11T14:03:41.595Z,13.66
2023-03-11T14:06:20.560Z,13.65
2023-03-11T14:08:55.548Z,13.52
2023-03-11T14:11:27.226Z,13.44
2023-03-11T14:13:54.202Z,13.44
2023-03-11T14:16:44.019Z,13.34
2023-03-11T14:19:18.980Z,13.25
2023-03-11T14:21:47.867Z,13.42
2023-03-11T14:24:17.625Z,13.28
2023-03-11T14:26:45.332Z,13.31
2023-03-11T14:29:17.737Z,13.27
2023-03-11T14:31:46.017Z,13.35
2023-03-11T14:34:27.504Z,13.51
2023-03-11T14:36:57.377Z,13.70
2023-03-11T14:39:37.369Z,14.14
2023-03-11T14:42:13.813Z,14.22
2023-03-11T14:44:43.666Z,14.35
2023-03-11T14:47:13.186Z,14.66
2023-03-11T14:49:40.430Z,14.85
2023-03-11T14:52:18.297Z,15.01
2023-03-11T14:54:46.039Z,15.20
2023-03-11T14:57:30.602Z,15.41
2023-03-11T14:59:57.960Z,15.42
2023-03-11T15:02:50.654Z,15.74
2023-03-11T15:05:28.024Z,15.81
2023-03-11T15:08:00.451Z,15.74
2023-03-11T15:10:27.202Z,15.86
2023-03-11T15:13:11.312Z,15.88
2023-03-11T15:15:38.071Z,15.90
2023-03-11T15:18:22.313Z,16.05
2023-03-11T15:21:05.740Z,15.96
2023-03-11T15:23:35.546Z,15.94
2023-03-11T15:26:04.198Z,16.01
2023-03-11T15:28:37.710Z,16.03
2023-03-11T15:31:22.681Z,16.03
2023-03-11T15:33:51.805Z,15.94
2023-03-11T15:36:31.530Z,15.98
2023-03-11T15:39:13.791Z,15.90
2023-03-11T15:41:46.510Z,15.73
2023-03-11T15:44:32.804Z,15.74
2023-03-11T15:47:00.491Z,15.91
2023-03-11T15:49:29.267Z,15.91
2023-03-11T15:52:05.050Z,15.88
2023-03-11T15:54:31.739Z,15.47
2023-03-11T15:57:03.697Z,15.27
2023-03-11T15:59:30.694Z,15.01
2023-03-11T16:01:58.406Z,14.75
2023-03-11T16:04:26.214Z,14.45
2023-03-11T16:07:07.117Z,14.37
2023-03-11T16:09:34.491Z,14.41
2023-03-11T16:12:02.192Z,14.35
2023-03-11T16:14:28.840Z,14.18
2023-03-11T16:16:55.677Z,13.94
2023-03-11T16:19:22.422Z,13.70
2023-03-11T16:21:50.599Z,13.62
2023-03-11T16:24:21.057Z,13.39
2023-03-11T16:26:48.376Z,13.32
2023-03-11T16:29:19.341Z,13.19
2023-03-11T16:31:47.124Z,13.16
2023-03-11T16:34:13.937Z,13.06
2023-03-11T16:36:40.879Z,12.99
2023-03-11T16:39:07.564Z,12.87
2023-03-11T16:41:42.264Z,12.97
2023-03-11T16:44:09.876Z,12.98
2023-03-11T16:46:37.635Z,12.90
2023-03-11T16:49:05.382Z,12.86
2023-03-11T16:51:32.367Z,12.91
2023-03-11T16:53:59.729Z,13.02
2023-03-11T16:56:26.507Z,13.07
2023-03-11T16:58:53.227Z,12.84
2023-03-11T17:01:21.777Z,12.78
2023-03-11T17:03:52.776Z,12.83
2023-03-11T17:06:20.636Z,12.89
2023-03-11T17:08:49.523Z,12.91
2023-03-11T17:11:24.374Z,12.90
2023-03-11T17:13:51.343Z,13.05
2023-03-11T17:16:18.050Z,13.09
2023-03-11T17:18:45.031Z,13.13
2023-03-11T17:21:14.261Z,12.98
2023-03-11T17:23:41.349Z,12.96
2023-03-11T17:26:13.706Z,13.13
2023-03-11T17:28:40.612Z,13.20
2023-03-11T17:31:12.687Z,13.27
2023-03-11T17:33:40.029Z,13.38
2023-03-11T17:36:09.227Z,13.64
2023-03-11T17:38:36.000Z,13.68
2023-03-11T17:41:08.364Z,13.71
2023-03-11T17:43:35.147Z,13.70
2023-03-11T17:46:02.377Z,13.58
2023-03-11T17:48:29.156Z,13.73
2023-03-11T17:50:55.950Z,13.49
2023-03-11T17:53:23.049Z,13.06
2023-03-11T17:55:49.897Z,12.96
2023-03-11T17:58:16.540Z,12.66
2023-03-11T18:00:43.177Z,12.28
2023-03-11T18:03:09.907Z,12.04
2023-03-11T18:05:38.109Z,11.87
2023-03-11T18:08:04.947Z,11.80
2023-03-11T18:10:31.763Z,11.89
2023-03-11T18:12:58.452Z,11.89
2023-03-11T18:15:25.120Z,11.88
2023-03-11T18:17:51.879Z,11.80
2023-03-11T18:20:19.476Z,11.74
2023-03-11T18:22:47.280Z,11.82
2023-03-11T18:25:14.548Z,11.63
2023-03-11T18:27:41.499Z,11.59
2023-03-11T18:30:11.258Z,11.53
2023-03-11T18:32:38.025Z,11.50
2023-03-11T18:35:05.309Z,11.49
2023-03-11T18:37:33.605Z,11.51
2023-03-11T18:40:00.512Z,11.50
2023-03-11T18:42:27.233Z,11.56
2023-03-11T18:44:53.933Z,11.59
2023-03-11T18:47:20.602Z,11.76
2023-03-11T18:49:47.474Z,11.90
2023-03-11T18:52:14.294Z,11.79
2023-03-11T18:54:41.178Z,11.82
2023-03-11T18:57:07.951Z,11.69
2023-03-11T18:59:34.586Z,11.71
2023-03-11T19:02:01.244Z,11.84
2023-03-11T19:04:28.633Z,11.77
2023-03-11T19:06:55.347Z,11.74
2023-03-11T19:09:22.091Z,11.79
2023-03-11T19:11:48.829Z,11.71
2023-03-11T19:14:15.546Z,11.55
2023-03-11T19:16:43.634Z,11.50
2023-03-11T19:19:11.928Z,11.61
2023-03-11T19:21:38.969Z,11.77
2023-03-11T19:24:05.809Z,11.40
2023-03-11T19:26:44.292Z,11.52
2023-03-11T19:29:13.824Z,11.25
2023-03-11T19:31:40.754Z,10.79
2023-03-11T19:34:07.578Z,11.10
2023-03-11T19:36:34.867Z,11.13
2023-03-11T19:39:01.543Z,11.16
2023-03-11T19:41:28.390Z,11.20
2023-03-11T19:43:56.210Z,11.25
2023-03-11T19:46:23.191Z,11.20
2023-03-11T19:48:50.116Z,11.14
2023-03-11T19:51:19.766Z,11.04
2023-03-11T19:53:47.210Z,10.90
2023-03-11T19:56:14.054Z,10.71
2023-03-11T19:58:42.681Z,10.82
2023-03-11T20:01:16.769Z,10.67
2023-03-11T20:03:43.953Z,10.87
2023-03-11T20:06:11.242Z,10.92
2023-03-11T20:08:37.888Z,11.01
2023-03-11T20:11:06.441Z,10.99
2023-03-11T20:13:34.793Z,10.93
2023-03-11T20:16:10.139Z,10.94
2023-03-11T20:18:37.325Z,10.97
2023-03-11T20:21:08.986Z,10.86
2023-03-11T20:23:36.553Z,10.75
2023-03-11T20:26:14.992Z,10.75
2023-03-11T20:28:42.243Z,10.80
2023-03-11T20:31:19.642Z,10.84
2023-03-11T20:33:48.128Z,10.90
2023-03-11T20:36:21.143Z,10.70
2023-03-11T20:38:49.559Z,10.58
2023-03-11T20:41:17.067Z,10.54
2023-03-11T20:43:44.825Z,10.49
2023-03-11T20:46:12.638Z,10.53
2023-03-11T20:48:39.906Z,10.57
2023-03-11T20:51:13.182Z,10.52
2023-03-11T20:53:40.598Z,10.51
2023-03-11T20:56:21.375Z,10.50
2023-03-11T20:58:51.151Z,10.58
2023-03-11T21:01:23.843Z,10.58
2023-03-11T21:03:54.138Z,10.58
2023-03-11T21:06:41.197Z,10.67
2023-03-11T21:09:12.175Z,10.68
2023-03-11T21:11:38.974Z,10.56
2023-03-11T21:14:07.044Z,10.67
2023-03-11T21:16:34.191Z,10.66
2023-03-11T21:19:05.305Z,10.70
2023-03-11T21:21:32.103Z,10.70
2023-03-11T21:23:58.915Z,10.75
2023-03-11T21:26:25.760Z,10.78
2023-03-11T21:28:52.618Z,10.84
2023-03-11T21:31:22.001Z,10.72
2023-03-11T21:33:52.188Z,10.96
2023-03-11T21:36:19.222Z,10.83
2023-03-11T21:38:46.812Z,10.80
2023-03-11T21:41:27.325Z,10.91
2023-03-11T21:43:55.767Z,10.98
2023-03-11T21:46:25.694Z,10.97
2023-03-11T21:48:52.861Z,10.90
2023-03-11T21:51:20.690Z,10.85
2023-03-11T21:53:48.101Z,10.88
2023-03-11T21:56:15.959Z,10.72
2023-03-11T21:58:43.541Z,10.68
2023-03-11T22:01:11.030Z,10.72
2023-03-11T22:03:38.291Z,10.68
2023-03-11T22:06:08.132Z,10.70
2023-03-11T22:08:35.504Z,10.70
2023-03-11T22:11:03.141Z,10.78
2023-03-11T22:13:29.827Z,10.62
2023-03-11T22:15:56.509Z,10.63
2023-03-11T22:18:23.349Z,10.82
2023-03-11T22:20:50.196Z,10.59
2023-03-11T22:23:16.855Z,10.46
2023-03-11T22:25:43.954Z,10.41
2023-03-11T22:28:13.111Z,10.67
2023-03-11T22:30:39.850Z,10.81
2023-03-11T22:33:07.254Z,10.52
2023-03-11T22:35:34.661Z,10.33
2023-03-11T22:38:01.419Z,10.17
2023-03-11T22:40:28.253Z,9.94
2023-03-11T22:42:55.290Z,10.00
2023-03-11T22:45:23.134Z,9.68
2023-03-11T22:47:50.743Z,9.99
2023-03-11T22:50:18.404Z,9.86
2023-03-11T22:52:45.582Z,9.45
2023-03-11T22:55:12.409Z,9.33
2023-03-11T22:57:39.316Z,9.22
2023-03-11T23:00:17.886Z,9.09
2023-03-11T23:02:46.227Z,9.07
2023-03-11T23:05:14.644Z,8.99
2023-03-11T23:07:42.017Z,8.96
2023-03-11T23:10:10.546Z,9.08
2023-03-11T23:12:37.267Z,8.84
2023-03-11T23:15:06.407Z,8.89
2023-03-11T23:17:33.052Z,8.70
2023-03-11T23:20:00.067Z,8.76
2023-03-11T23:22:26.883Z,8.52
2023-03-11T23:24:53.992Z,8.55
2023-03-11T23:27:20.694Z,8.31
2023-03-11T23:29:49.435Z,8.28
2023-03-11T23:32:16.174Z,8.27
2023-03-11T23:34:42.866Z,8.27
2023-03-11T23:37:09.539Z,8.07
2023-03-11T23:39:36.215Z,8.18
2023-03-11T23:42:14.794Z,8.09
2023-03-11T23:44:49.206Z,8.08
2023-03-11T23:47:15.849Z,8.15
2023-03-11T23:49:42.610Z,8.01
2023-03-11T23:52:09.318Z,8.01
2023-03-11T23:54:36.131Z,7.81
2023-03-11T23:57:02.817Z,7.80
2023-03-11T23:59:29.553Z,7.61
